Pueblo Of Acoma, New Mexico
Current Conditions -  °F | °C
As of 7:16 AM on Thursday 30 Oct 2014 (Local Time) from KGNT Reporting Station
Clear Clear  
Wind Chill: 11°   Ceiling: Unl
Heat Index: 23°   Visibility: 10mi
Dew Point: 12°   Wind: 13mph
Humidity: 63%   Direction: 320°NW
Pressure: 30.38"   Gusts: 18mph
Location:  35.08°N, 107.6°W
Report Text: KGNT 301316Z AUTO 32011G16KT 10SM CLR M05/M11 A3038 RMK AO2
Loading
Personal Weather Stations






























Interactive Weather Map
Tropical Storm Tracking
New forecast layout! Learn more

10-Day Weather Forecast

Advertisements
Track Severe Weather on mobile